Wind Star — C6CA9 — position and weather

sailwx.info

Track history (hours):
 
Tides and Currents Weather Stations Pressure Air Temp Water Temp Dewpoint Dewpoint Depression Visibility Wind Speed Wind Dir Waves Ship Positions

Wind Star

Operator: Holland America Line

Last reported at 2018-Feb-25 16:00 UTC. Time now 2018-Feb-26 01:00 UTC.
Position N 09°11' W 079°51'.

Length 134 m; draft 4.1 m.

Type: Ship. MMSI: 309163000.

Date/timePositionNaut miles runAvg speedWind from/ knotsBaromVisibWave heightAir tempDewpointWater temp
2018-Feb-25 16:00N 09°11' W 079°51'4 8.7
2018-Feb-25 15:31N 09°13' W 079°55'3 6.8
2018-Feb-25 15:00N 09°16' W 079°55'0 0.4
2018-Feb-25 14:30N 09°16' W 079°55'0 0.9
2018-Feb-25 14:01N 09°17' W 079°55'2 3.2
2018-Feb-25 13:31N 09°18' W 079°55'3 6.8
2018-Feb-25 13:01N 09°22' W 079°55'1 1.2
2018-Feb-25 12:30N 09°22' W 079°55'0 0.0
2018-Feb-25 12:00N 09°22' W 079°55'0 0.0
2018-Feb-25 11:30N 09°22' W 079°55'0 0.0
2018-Feb-25 11:00N 09°22' W 079°55'0 0.0
2018-Feb-25 10:30N 09°22' W 079°55'0 0.0
2018-Feb-25 10:00N 09°22' W 079°55'0 0.0
2018-Feb-25 09:30N 09°22' W 079°55'0 0.0
2018-Feb-25 09:00N 09°22' W 079°55'0 0.0
2018-Feb-25 08:30N 09°22' W 079°55'0 0.0
2018-Feb-25 08:00N 09°22' W 079°55'0 0.0
2018-Feb-25 07:30N 09°22' W 079°55'0 0.0
2018-Feb-25 07:00N 09°22' W 079°55'0 0.0
2018-Feb-25 06:30N 09°22' W 079°55'0 0.0
2018-Feb-25 06:00N 09°22' W 079°55'0 0.0
2018-Feb-25 05:30N 09°22' W 079°55'0 0.0
2018-Feb-25 05:00N 09°22' W 079°55'0 0.0
2018-Feb-25 04:30N 09°22' W 079°55'0 0.0
2018-Feb-25 04:00N 09°22' W 079°55'0 0.0
2018-Feb-25 03:30N 09°22' W 079°55'0 0.0
2018-Feb-25 03:00N 09°22' W 079°55'0 0.0
2018-Feb-25 02:30N 09°22' W 079°55'0 0.0
2018-Feb-25 02:00N 09°22' W 079°55'0 0.0
2018-Feb-25 01:30N 09°22' W 079°55'0 0.0
2018-Feb-25 01:00N 09°22' W 079°55'0 0.0
2018-Feb-25 00:30N 09°22' W 079°55'0 0.0
2018-Feb-25 00:00N 09°22' W 079°55'0 0.1
2018-Feb-24 23:30N 09°22' W 079°55'2 3.1
2018-Feb-24 23:00N 09°24' W 079°54'2 4.0
2018-Feb-24 22:28N 09°22' W 079°54'0 0.0
2018-Feb-24 21:58N 09°22' W 079°54'0 0.0
2018-Feb-24 21:28N 09°22' W 079°54'0 0.0
2018-Feb-24 20:58N 09°22' W 079°54'0 0.0
2018-Feb-24 20:28N 09°22' W 079°54'0 0.0
2018-Feb-24 19:58N 09°22' W 079°54'0 0.0
2018-Feb-24 19:28N 09°22' W 079°54'0 0.0
2018-Feb-24 18:58N 09°22' W 079°54'0 0.0
2018-Feb-24 18:28N 09°22' W 079°54'0 0.0
2018-Feb-24 17:58N 09°22' W 079°54'0 0.0
2018-Feb-24 17:28N 09°22' W 079°54'0 0.0
2018-Feb-24 16:58N 09°22' W 079°54'0 0.0
2018-Feb-24 16:28N 09°22' W 079°54'0 0.0
2018-Feb-24 15:58N 09°22' W 079°54'0 0.0
2018-Feb-24 15:28N 09°22' W 079°54'0 0.0
2018-Feb-24 14:58N 09°22' W 079°54'0 0.0
2018-Feb-24 14:28N 09°22' W 079°54'0 0.0
2018-Feb-24 13:58N 09°22' W 079°54'0 0.0
2018-Feb-24 13:28N 09°22' W 079°54'0 0.0
2018-Feb-24 12:58N 09°22' W 079°54'0 0.0
2018-Feb-24 12:28N 09°22' W 079°54'0 0.0
2018-Feb-24 11:58N 09°22' W 079°54'0 0.0
2018-Feb-24 11:28N 09°22' W 079°54'0 0.0
2018-Feb-24 10:58N 09°22' W 079°54'0 0.0
2018-Feb-24 10:28N 09°22' W 079°54'0 0.0
2018-Feb-24 09:58N 09°22' W 079°54'0 0.0
2018-Feb-24 09:28N 09°22' W 079°54'0 0.0
2018-Feb-24 08:58N 09°22' W 079°54'0 0.0
2018-Feb-24 08:28N 09°22' W 079°54'0 0.0
2018-Feb-24 07:58N 09°22' W 079°54'0 0.0
2018-Feb-24 07:28N 09°22' W 079°54'0 0.0
2018-Feb-24 06:58N 09°22' W 079°54'0 0.0
2018-Feb-24 06:28N 09°22' W 079°54'0 0.0
2018-Feb-24 05:58N 09°22' W 079°54'0 0.0
2018-Feb-24 05:28N 09°22' W 079°54'0 0.0
2018-Feb-24 04:58N 09°22' W 079°54'0 0.0
2018-Feb-24 04:28N 09°22' W 079°54'0 0.0
2018-Feb-24 03:58N 09°22' W 079°54'0 0.0
2018-Feb-24 03:28N 09°22' W 079°54'0 0.0
2018-Feb-24 02:58N 09°22' W 079°54'0 0.0
2018-Feb-24 02:28N 09°22' W 079°54'0 0.0
2018-Feb-24 01:58N 09°22' W 079°54'0 0.4
2018-Feb-24 01:30N 09°22' W 079°53'2 4.3
2018-Feb-24 01:00N 09°24' W 079°54'1 2.2
2018-Feb-24 00:30N 09°25' W 079°54'1 1.3
2018-Feb-24 00:00N 09°26' W 079°54'2 3.8
2018-Feb-23 23:30N 09°28' W 079°54'5 6.3
2018-Feb-23 22:46N 09°32' W 079°53'1 5.3
2018-Feb-23 22:29N 09°32' W 079°55'3 5.9
2018-Feb-23 21:59N 09°29' W 079°55'3 5.9
2018-Feb-23 21:25N 09°26' W 079°55'3 7.6
2018-Feb-23 21:00N 09°23' W 079°55'4 8.2
2018-Feb-23 20:30N 09°18' W 079°55'2 3.5
2018-Feb-23 20:00N 09°17' W 079°55'0 0.7
2018-Feb-23 19:29N 09°16' W 079°55'1 1.5
2018-Feb-23 19:00N 09°16' W 079°55'1 1.4
2018-Feb-23 18:30N 09°15' W 079°55'3 6.4
2018-Feb-23 17:58N 09°12' W 079°54'  
Track history (hours):
 
Tides and Currents Weather Stations Pressure Air Temp Water Temp Dewpoint Dewpoint Depression Visibility Wind Speed Wind Dir Waves Ship Positions

Wind Star

Operator: Holland America Line

Last reported at 2018-Feb-25 16:00 UTC. Time now 2018-Feb-26 01:00 UTC.
Position N 09°11' W 079°51'.

Length 134 m; draft 4.1 m.

Type: Ship. MMSI: 309163000.

Date/timePositionNaut miles runAvg speedWind from/ knotsBaromVisibWave heightAir tempDewpointWater temp
2018-Feb-25 16:00N 09°11' W 079°51'4 8.7
2018-Feb-25 15:31N 09°13' W 079°55'3 6.8
2018-Feb-25 15:00N 09°16' W 079°55'0 0.4
2018-Feb-25 14:30N 09°16' W 079°55'0 0.9
2018-Feb-25 14:01N 09°17' W 079°55'2 3.2
2018-Feb-25 13:31N 09°18' W 079°55'3 6.8
2018-Feb-25 13:01N 09°22' W 079°55'1 1.2
2018-Feb-25 12:30N 09°22' W 079°55'0 0.0
2018-Feb-25 12:00N 09°22' W 079°55'0 0.0
2018-Feb-25 11:30N 09°22' W 079°55'0 0.0
2018-Feb-25 11:00N 09°22' W 079°55'0 0.0
2018-Feb-25 10:30N 09°22' W 079°55'0 0.0
2018-Feb-25 10:00N 09°22' W 079°55'0 0.0
2018-Feb-25 09:30N 09°22' W 079°55'0 0.0
2018-Feb-25 09:00N 09°22' W 079°55'0 0.0
2018-Feb-25 08:30N 09°22' W 079°55'0 0.0
2018-Feb-25 08:00N 09°22' W 079°55'0 0.0
2018-Feb-25 07:30N 09°22' W 079°55'0 0.0
2018-Feb-25 07:00N 09°22' W 079°55'0 0.0
2018-Feb-25 06:30N 09°22' W 079°55'0 0.0
2018-Feb-25 06:00N 09°22' W 079°55'0 0.0
2018-Feb-25 05:30N 09°22' W 079°55'0 0.0
2018-Feb-25 05:00N 09°22' W 079°55'0 0.0
2018-Feb-25 04:30N 09°22' W 079°55'0 0.0
2018-Feb-25 04:00N 09°22' W 079°55'0 0.0
2018-Feb-25 03:30N 09°22' W 079°55'0 0.0
2018-Feb-25 03:00N 09°22' W 079°55'0 0.0
2018-Feb-25 02:30N 09°22' W 079°55'0 0.0
2018-Feb-25 02:00N 09°22' W 079°55'0 0.0
2018-Feb-25 01:30N 09°22' W 079°55'0 0.0
2018-Feb-25 01:00N 09°22' W 079°55'0 0.0
2018-Feb-25 00:30N 09°22' W 079°55'0 0.0
2018-Feb-25 00:00N 09°22' W 079°55'0 0.1
2018-Feb-24 23:30N 09°22' W 079°55'2 3.1
2018-Feb-24 23:00N 09°24' W 079°54'2 4.0
2018-Feb-24 22:28N 09°22' W 079°54'0 0.0
2018-Feb-24 21:58N 09°22' W 079°54'0 0.0
2018-Feb-24 21:28N 09°22' W 079°54'0 0.0
2018-Feb-24 20:58N 09°22' W 079°54'0 0.0
2018-Feb-24 20:28N 09°22' W 079°54'0 0.0
2018-Feb-24 19:58N 09°22' W 079°54'0 0.0
2018-Feb-24 19:28N 09°22' W 079°54'0 0.0
2018-Feb-24 18:58N 09°22' W 079°54'0 0.0
2018-Feb-24 18:28N 09°22' W 079°54'0 0.0
2018-Feb-24 17:58N 09°22' W 079°54'0 0.0
2018-Feb-24 17:28N 09°22' W 079°54'0 0.0
2018-Feb-24 16:58N 09°22' W 079°54'0 0.0
2018-Feb-24 16:28N 09°22' W 079°54'0 0.0
2018-Feb-24 15:58N 09°22' W 079°54'0 0.0
2018-Feb-24 15:28N 09°22' W 079°54'0 0.0
2018-Feb-24 14:58N 09°22' W 079°54'0 0.0
2018-Feb-24 14:28N 09°22' W 079°54'0 0.0
2018-Feb-24 13:58N 09°22' W 079°54'0 0.0
2018-Feb-24 13:28N 09°22' W 079°54'0 0.0
2018-Feb-24 12:58N 09°22' W 079°54'0 0.0
2018-Feb-24 12:28N 09°22' W 079°54'0 0.0
2018-Feb-24 11:58N 09°22' W 079°54'0 0.0
2018-Feb-24 11:28N 09°22' W 079°54'0 0.0
2018-Feb-24 10:58N 09°22' W 079°54'0 0.0
2018-Feb-24 10:28N 09°22' W 079°54'0 0.0
2018-Feb-24 09:58N 09°22' W 079°54'0 0.0
2018-Feb-24 09:28N 09°22' W 079°54'0 0.0
2018-Feb-24 08:58N 09°22' W 079°54'0 0.0
2018-Feb-24 08:28N 09°22' W 079°54'0 0.0
2018-Feb-24 07:58N 09°22' W 079°54'0 0.0
2018-Feb-24 07:28N 09°22' W 079°54'0 0.0
2018-Feb-24 06:58N 09°22' W 079°54'0 0.0
2018-Feb-24 06:28N 09°22' W 079°54'0 0.0
2018-Feb-24 05:58N 09°22' W 079°54'0 0.0
2018-Feb-24 05:28N 09°22' W 079°54'0 0.0
2018-Feb-24 04:58N 09°22' W 079°54'0 0.0
2018-Feb-24 04:28N 09°22' W 079°54'0 0.0
2018-Feb-24 03:58N 09°22' W 079°54'0 0.0
2018-Feb-24 03:28N 09°22' W 079°54'0 0.0
2018-Feb-24 02:58N 09°22' W 079°54'0 0.0
2018-Feb-24 02:28N 09°22' W 079°54'0 0.0
2018-Feb-24 01:58N 09°22' W 079°54'0 0.4
2018-Feb-24 01:30N 09°22' W 079°53'2 4.3
2018-Feb-24 01:00N 09°24' W 079°54'1 2.2
2018-Feb-24 00:30N 09°25' W 079°54'1 1.3
2018-Feb-24 00:00N 09°26' W 079°54'2 3.8
2018-Feb-23 23:30N 09°28' W 079°54'5 6.3
2018-Feb-23 22:46N 09°32' W 079°53'1 5.3
2018-Feb-23 22:29N 09°32' W 079°55'3 5.9
2018-Feb-23 21:59N 09°29' W 079°55'3 5.9
2018-Feb-23 21:25N 09°26' W 079°55'3 7.6
2018-Feb-23 21:00N 09°23' W 079°55'4 8.2
2018-Feb-23 20:30N 09°18' W 079°55'2 3.5
2018-Feb-23 20:00N 09°17' W 079°55'0 0.7
2018-Feb-23 19:29N 09°16' W 079°55'1 1.5
2018-Feb-23 19:00N 09°16' W 079°55'1 1.4
2018-Feb-23 18:30N 09°15' W 079°55'3 6.4
2018-Feb-23 17:58N 09°12' W 079°54'  

Dump ship's entire track history